Hercílio Luz International Airport
SBFL : now visible

Airfield :











YOU CAN JOIN US ON...

 
LOGIN :

Register | Disclaimer

   EN    FR    IT 

 









Legend :    VFR   Marginal VFR   IFR   Intensive IFR   Very Intensive IFR
Visi :
Ceiling :
>= 8 km
>= 3000ft
5 to 8 km
1000 to 3000 ft
1500m to 5 km
500 to 1000 ft
800 to 1500m
200 to 500 ft
< 800m
< 200 ft
Symbols :   Thunderstorms  Fog  Heavy snow  Heavy precipitations  Wind > 20 kt






- Airport Elevation : 16 ft
- IATA code : FLN


SBFL - Hercílio Luz International

CURRENT METAR :
  • 071000Z 17012KT 9999 FEW030 21/15 Q1015

EXPIRED METARs :
  • 070900Z 28001KT CAVOK 20/14 Q1014
  • 070800Z 17001KT CAVOK 18/13 Q1014

TAF TAF SBFL
Valid from the 07 at 06:00 until the 08 at 06:00 UTC


070300Z 0706/0806 18007KT 9999 SCT012 BKN030 TX24/0716Z TN18/0806Z
BECMG 0706/0708 18015KT FEW020
BECMG 0711/0713 18018KT CAVOK
BECMG 0722/0724 20008KT RMK PDJ



MET'MAP, your aeronautical weather chart ! - Copyright ORBIFLY December 2007 - Disclaimer

ORBIFLY MET'MAP TEAM :

Programming & Development : Alexandra Zaïnal
Concept & original design : Baudouin d'Aumeries
Assistance for programming : Marc-Olivier Méhu
Technical & hardware support : Manuel Goepfert

Contact : metmap@orbifly.com




SOURCES & CREDITS :

   NOAA       Earth
Advisory